Aérodrome :
LOGIN :

S'inscrire | Disclaimer

   EN    FR    IT 

 










Légende :    VFR   VFR Marginal   IFR   IFR Intensif   IFR Très Intensif
Visi : 
Plafond : 
>= 8 km
>= 3000ft
5 à 8 km
1000 à 3000 ft
1500m à 5 km
500 à 1000 ft
800 à 1500m
200 à 500 ft
< 800m
< 200 ft
Symboles :   Orages  Brouillard  Fortes neiges  Fortes précipitations  Vent > 20 kt
SIGMETs :   Divers  Orages  Givrage  Turbulence  Onde Orograph.  Cendres Volcan.






- Altitude de l'aérodrome : -13 ft
- Code IATA : LEY


EHLE - Lelystad

DERNIER METAR :
  • 270625Z AUTO 36009KT 9000 BKN048 15/12 Q1034 NOSIG

METARs EXPIRÉS :
  • 270555Z AUTO 35006KT 320V030 7000 FEW009 15/13 Q1034 BECMG 9999
  • 270525Z AUTO 36007KT 320V030 6000 BR FEW008 15/13 Q1034 BECMG 7000 NSW
  • 270455Z AUTO 34006KT 4700 BR FEW008 BKN049 14/13 Q1034
  • 270425Z AUTO 35004KT 4000 BR NCD 13/12 Q1034
  • 270355Z AUTO 35005KT 4400 BR NCD 13/13 Q1034

TAF TAF EHLE
Valide du 27 à 06h jusqu'au 28 à 12h UTC


270506Z 2706/2812 01005KT CAVOK
PROB30 2706/2707 6000 SCT008
BECMG 2709/2712 34013KT
BECMG 2719/2722 04007KT
BECMG 2809/2812 35010KT



MET'MAP, la Météo Aéronautique d'un coup d'oeil ! - Copyright ORBIFLY Décembre 2007 - Disclaimer

ORBIFLY MET'MAP TEAM :

Programmation & Développement : Alexandra Zaïnal
Sur une idée originale de : Baudouin d'Aumeries
Assistance à la programmation : Marc-Olivier Méhu
Soutien technique & logistique : Manuel Goepfert

Contact : metmap@orbifly.com




SOURCES & CREDITS :

   NOAA